Time;durP1;ratioP1;P1;durP2;ratioP2;P2;SDS_P1;SDS_P2;PMS_P1;PMS_P2;Temp;Humidity;BMP_temperature;BMP_pressure;BME280_temperature;BME280_humidity;BME280_pressure;Samples;Min_cycle;Max_cycle;Signal;HPM_P1;HPM_P2
2022/07/24 00:00:24;;;;;;;0.10;0.10;;;20.60;86.70;;;;;;4927052;29;20467;-85
2022/07/24 00:02:50;;;;;;;0.53;0.53;;;20.60;87.40;;;;;;4943599;29;20035;-83
2022/07/24 00:05:16;;;;;;;0.50;0.50;;;20.60;87.60;;;;;;4924973;29;20060;-83
2022/07/24 00:07:43;;;;;;;0.83;0.30;;;20.60;88.30;;;;;;4924127;29;20086;-85
2022/07/24 00:10:10;;;;;;;1.15;0.50;;;20.60;88.70;;;;;;4941793;29;20530;-85
2022/07/24 00:12:37;;;;;;;1.10;0.85;;;20.50;89.60;;;;;;4942380;29;20042;-84
2022/07/24 00:15:04;;;;;;;0.55;0.55;;;20.40;90.20;;;;;;4945947;29;20050;-85
2022/07/24 00:17:29;;;;;;;0.20;0.20;;;20.40;90.40;;;;;;4943307;28;20159;-85
2022/07/24 00:19:55;;;;;;;0.17;0.17;;;20.40;90.70;;;;;;4946686;28;20051;-85
2022/07/24 00:22:21;;;;;;;0.37;0.37;;;20.40;90.90;;;;;;4948094;29;20039;-85
2022/07/24 00:24:46;;;;;;;0.27;0.27;;;20.30;91.30;;;;;;4947047;29;20038;-84
2022/07/24 00:27:12;;;;;;;0.40;0.40;;;20.30;91.60;;;;;;4929688;29;20055;-85
2022/07/24 00:29:38;;;;;;;0.13;0.13;;;20.20;91.80;;;;;;4929692;29;20046;-85
2022/07/24 00:32:04;;;;;;;0.40;0.40;;;20.20;92.40;;;;;;4923991;29;20039;-85
2022/07/24 00:34:29;;;;;;;0.47;0.37;;;20.10;92.90;;;;;;4945847;29;20047;-85
2022/07/24 00:36:55;;;;;;;0.20;0.20;;;20.10;93.30;;;;;;4945701;29;20113;-84
2022/07/24 00:39:21;;;;;;;0.67;0.50;;;20.00;93.90;;;;;;4946640;29;20049;-85
2022/07/24 00:41:46;;;;;;;0.30;0.30;;;19.90;94.50;;;;;;4929860;29;20034;-86
2022/07/24 00:44:15;;;;;;;0.17;0.17;;;19.90;95.10;;;;;;4930392;29;20125;-85
2022/07/24 00:46:42;;;;;;;0.20;0.20;;;19.90;95.50;;;;;;4945180;29;20035;-86
2022/07/24 00:49:11;;;;;;;0.28;0.28;;;19.80;96.00;;;;;;4948118;29;20043;-83
2022/07/24 00:51:41;;;;;;;0.13;0.13;;;19.70;96.50;;;;;;4944975;29;20110;-83
2022/07/24 00:54:08;;;;;;;0.30;0.30;;;19.70;97.20;;;;;;4930277;29;20030;-82
2022/07/24 00:56:34;;;;;;;0.38;0.32;;;19.60;97.80;;;;;;4928654;29;20034;-83
2022/07/24 00:59:00;;;;;;;0.20;0.15;;;19.50;98.40;;;;;;4946886;29;20027;-83
2022/07/24 01:01:27;;;;;;;0.20;0.20;;;19.40;99.30;;;;;;4946440;29;20049;-83
2022/07/24 01:03:53;;;;;;;2.00;1.13;;;19.40;99.90;;;;;;4926319;29;20027;-83
2022/07/24 01:06:19;;;;;;;0.10;0.10;;;19.30;99.90;;;;;;4946862;29;20045;-84
2022/07/24 01:08:45;;;;;;;0.20;0.20;;;19.30;99.90;;;;;;4928325;29;20089;-81
2022/07/24 01:11:12;;;;;;;0.40;0.40;;;19.40;99.90;;;;;;4945104;29;20057;-82
2022/07/24 01:13:39;;;;;;;0.28;0.28;;;19.30;99.90;;;;;;4941324;28;20121;-83
2022/07/24 01:16:06;;;;;;;0.10;0.10;;;19.20;99.90;;;;;;4942024;29;20078;-82
2022/07/24 01:18:31;;;;;;;0.17;0.17;;;19.20;99.90;;;;;;4907743;29;20054;-83
2022/07/24 01:20:57;;;;;;;0.40;0.40;;;19.10;99.90;;;;;;4944249;29;21301;-82
2022/07/24 01:23:23;;;;;;;0.53;0.53;;;19.00;99.90;;;;;;4946526;29;20098;-83
2022/07/24 01:25:50;;;;;;;0.10;0.10;;;19.10;99.90;;;;;;4945552;29;20042;-83
2022/07/24 01:28:15;;;;;;;2.53;0.65;;;19.10;99.90;;;;;;4944426;29;20538;-80
2022/07/24 01:30:41;;;;;;;0.23;0.23;;;19.10;99.90;;;;;;4945185;28;20039;-84
2022/07/24 01:33:07;;;;;;;0.20;0.20;;;19.10;99.90;;;;;;4944261;29;20038;-84
2022/07/24 01:35:33;;;;;;;0.83;0.83;;;19.00;99.90;;;;;;4944583;29;20031;-84
2022/07/24 01:37:59;;;;;;;1.40;0.90;;;18.90;99.90;;;;;;4944852;29;20050;-83
2022/07/24 01:40:25;;;;;;;0.33;0.33;;;18.90;99.90;;;;;;4928199;29;20034;-78
2022/07/24 01:42:51;;;;;;;0.43;0.43;;;18.80;99.90;;;;;;4943587;29;20045;-80
2022/07/24 01:45:18;;;;;;;0.60;0.60;;;18.80;99.90;;;;;;4943164;29;20115;-80
2022/07/24 01:47:46;;;;;;;;;;;18.70;99.90;;;;;;4945251;29;20058;-83
2022/07/24 01:50:13;;;;;;;0.10;0.10;;;18.70;99.90;;;;;;4928421;29;19922;-83
2022/07/24 01:52:39;;;;;;;0.20;0.20;;;18.70;99.90;;;;;;4943200;29;20537;-83
2022/07/24 01:55:07;;;;;;;1.33;0.47;;;18.70;99.90;;;;;;4925440;29;20062;-83
2022/07/24 01:57:33;;;;;;;0.20;0.20;;;18.70;99.90;;;;;;4928346;29;20039;-84
2022/07/24 02:00:00;;;;;;;2.27;1.23;;;18.60;99.90;;;;;;4945176;29;20035;-81
2022/07/24 02:02:27;;;;;;;0.35;0.35;;;18.60;99.90;;;;;;4944586;29;20078;-81
2022/07/24 02:04:53;;;;;;;0.20;0.20;;;18.50;99.90;;;;;;4928001;29;20035;-81
2022/07/24 02:07:19;;;;;;;0.45;0.30;;;18.50;99.90;;;;;;4946261;29;20023;-81
2022/07/24 02:09:45;;;;;;;0.67;0.67;;;18.50;99.90;;;;;;4925378;29;20039;-82
2022/07/24 02:12:11;;;;;;;0.47;0.47;;;18.60;99.90;;;;;;4928608;29;20039;-82
2022/07/24 02:14:36;;;;;;;0.20;0.20;;;18.50;99.90;;;;;;4929563;29;20526;-82
2022/07/24 02:17:03;;;;;;;0.43;0.43;;;18.50;99.90;;;;;;4944954;28;20051;-82
2022/07/24 02:19:29;;;;;;;0.40;0.40;;;18.40;99.90;;;;;;4945671;29;20040;-81
2022/07/24 02:21:55;;;;;;;0.50;0.50;;;18.40;99.90;;;;;;4923297;29;20551;-82
2022/07/24 02:24:21;;;;;;;0.40;0.40;;;18.40;99.90;;;;;;4942564;29;20386;-83
2022/07/24 02:26:48;;;;;;;0.22;0.22;;;18.30;99.90;;;;;;4944856;29;20035;-84
2022/07/24 02:29:13;;;;;;;0.75;0.75;;;18.30;99.90;;;;;;4928639;29;20578;-82
2022/07/24 02:31:39;;;;;;;2.80;0.50;;;18.30;99.90;;;;;;4926755;29;20043;-82
2022/07/24 02:34:07;;;;;;;0.40;0.40;;;18.30;99.90;;;;;;4939308;29;20035;-82
2022/07/24 02:36:33;;;;;;;1.45;0.65;;;18.20;99.90;;;;;;4926461;29;20041;-82
2022/07/24 02:38:59;;;;;;;1.77;1.17;;;18.20;99.90;;;;;;4910420;29;20035;-83
2022/07/24 02:41:25;;;;;;;0.70;0.70;;;18.20;99.90;;;;;;4942292;29;20043;-82
2022/07/24 02:43:50;;;;;;;0.23;0.23;;;18.20;99.90;;;;;;4926077;29;20045;-83
2022/07/24 02:46:16;;;;;;;0.60;0.60;;;18.20;99.90;;;;;;4944624;29;20093;-81
2022/07/24 02:48:42;;;;;;;3.23;0.57;;;18.10;99.90;;;;;;4925853;29;20039;-88
2022/07/24 02:51:07;;;;;;;0.77;0.77;;;18.10;99.90;;;;;;4943130;29;20051;-83
2022/07/24 02:53:35;;;;;;;0.73;0.73;;;18.00;99.90;;;;;;4944329;29;20578;-82
2022/07/24 02:56:01;;;;;;;0.43;0.35;;;17.90;99.90;;;;;;4943433;29;20122;-83
2022/07/24 02:58:27;;;;;;;0.30;0.30;;;17.90;99.90;;;;;;4946007;29;20023;-84
2022/07/24 03:00:53;;;;;;;0.73;0.70;;;17.90;99.90;;;;;;4938339;29;20035;-83
2022/07/24 03:03:19;;;;;;;0.77;0.30;;;17.90;99.90;;;;;;4943391;29;20481;-83
2022/07/24 03:05:44;;;;;;;1.40;0.37;;;17.90;99.90;;;;;;4942497;29;20047;-83
2022/07/24 03:08:10;;;;;;;0.43;0.43;;;17.90;99.90;;;;;;4945038;29;20035;-86
2022/07/24 03:10:36;;;;;;;0.33;0.33;;;17.90;99.90;;;;;;4945457;28;20130;-87
2022/07/24 03:13:02;;;;;;;1.50;1.10;;;17.80;99.90;;;;;;4925911;29;20499;-87
2022/07/24 03:15:27;;;;;;;0.30;0.30;;;17.80;99.90;;;;;;4943472;28;20118;-83
2022/07/24 03:17:55;;;;;;;0.10;0.10;;;17.70;99.90;;;;;;4943927;28;20091;-83
2022/07/24 03:20:23;;;;;;;3.45;1.52;;;17.70;99.90;;;;;;4945225;29;20067;-83
2022/07/24 03:22:49;;;;;;;1.38;1.05;;;17.70;99.90;;;;;;4939940;29;20067;-83
2022/07/24 03:25:15;;;;;;;1.48;0.80;;;17.70;99.90;;;;;;4942455;29;20039;-84
2022/07/24 03:27:41;;;;;;;0.35;0.20;;;17.70;99.90;;;;;;4926552;29;20034;-84
2022/07/24 03:30:08;;;;;;;0.37;0.37;;;17.70;99.90;;;;;;4926261;29;20031;-85
2022/07/24 03:32:34;;;;;;;0.20;0.20;;;17.70;99.90;;;;;;4922300;29;20529;-82
2022/07/24 03:35:00;;;;;;;0.13;0.13;;;17.70;99.90;;;;;;4943132;29;20043;-82
2022/07/24 03:37:25;;;;;;;0.60;0.60;;;17.70;99.90;;;;;;4924797;29;20049;-82
2022/07/24 03:39:51;;;;;;;0.10;0.10;;;17.70;99.90;;;;;;4940027;29;20131;-82
2022/07/24 03:42:17;;;;;;;0.30;0.23;;;17.70;99.90;;;;;;4941832;29;20027;-82
2022/07/24 03:44:42;;;;;;;0.20;0.20;;;17.70;99.90;;;;;;4941942;29;20042;-82
2022/07/24 03:47:08;;;;;;;0.47;0.27;;;17.70;99.90;;;;;;4925230;29;20118;-82
2022/07/24 03:49:34;;;;;;;0.23;0.23;;;17.60;99.90;;;;;;4925862;29;20035;-82
2022/07/24 03:52:00;;;;;;;0.00;0.00;;;17.70;99.90;;;;;;4942877;29;20098;-83
2022/07/24 03:54:26;;;;;;;0.10;0.10;;;17.60;99.90;;;;;;4928224;29;20031;-82
2022/07/24 03:56:51;;;;;;;0.70;0.57;;;17.60;99.90;;;;;;4946291;29;20031;-83
2022/07/24 03:59:18;;;;;;;0.20;0.20;;;17.50;99.90;;;;;;4946138;29;20058;-83
2022/07/24 04:01:44;;;;;;;0.50;0.40;;;17.50;99.90;;;;;;4947131;29;20526;-82
2022/07/24 04:04:10;;;;;;;0.30;0.30;;;17.40;99.90;;;;;;4930310;29;20038;-83
2022/07/24 04:06:36;;;;;;;0.30;0.30;;;17.40;99.90;;;;;;4930902;29;20031;-83
2022/07/24 04:09:03;;;;;;;0.45;0.45;;;17.40;99.90;;;;;;4929995;29;20043;-86
2022/07/24 04:11:29;;;;;;;0.63;0.40;;;17.30;99.90;;;;;;4945794;29;20050;-83
2022/07/24 04:13:54;;;;;;;0.10;0.10;;;17.30;99.90;;;;;;4946093;28;20035;-84
2022/07/24 04:16:20;;;;;;;0.73;0.73;;;17.30;99.90;;;;;;4932604;29;20574;-84
2022/07/24 04:18:46;;;;;;;0.30;0.30;;;17.40;99.90;;;;;;4947158;28;20529;-85
2022/07/24 04:21:12;;;;;;;1.30;0.70;;;17.40;99.90;;;;;;4944424;29;20507;-84
2022/07/24 04:23:37;;;;;;;0.57;0.57;;;17.20;99.90;;;;;;4946443;29;20038;-85
2022/07/24 04:26:04;;;;;;;0.57;0.57;;;17.30;99.90;;;;;;4947379;29;20039;-87
2022/07/24 04:28:30;;;;;;;2.08;0.50;;;17.30;99.90;;;;;;4945040;29;20035;-87
2022/07/24 04:30:56;;;;;;;0.88;0.80;;;17.30;99.90;;;;;;4944689;29;20050;-86
2022/07/24 04:33:22;;;;;;;0.33;0.33;;;17.30;99.90;;;;;;4945405;29;20047;-84
2022/07/24 04:35:48;;;;;;;0.65;0.65;;;17.30;99.90;;;;;;4945386;28;20086;-82
2022/07/24 04:38:14;;;;;;;0.27;0.27;;;17.10;99.90;;;;;;4945732;29;20035;-84
2022/07/24 04:40:40;;;;;;;0.10;0.10;;;17.10;99.90;;;;;;4945671;28;20038;-83
2022/07/24 04:43:05;;;;;;;0.40;0.40;;;17.10;99.90;;;;;;4948019;28;20068;-83
2022/07/24 04:45:31;;;;;;;0.50;0.50;;;17.50;99.90;;;;;;4946759;29;20668;-83
2022/07/24 04:47:57;;;;;;;0.67;0.67;;;17.90;99.90;;;;;;4945592;29;20031;-83
2022/07/24 04:50:23;;;;;;;0.43;0.43;;;18.10;99.90;;;;;;4950593;29;20046;-89
2022/07/24 04:52:48;;;;;;;0.20;0.20;;;18.30;99.90;;;;;;4950608;29;20035;-93
2022/07/24 04:55:14;;;;;;;2.70;1.30;;;18.60;99.90;;;;;;4950149;29;20051;-92
2022/07/24 04:57:40;;;;;;;0.20;0.20;;;18.90;99.90;;;;;;4949612;28;20023;-91
2022/07/24 05:00:08;;;;;;;0.57;0.57;;;18.90;99.90;;;;;;4948630;28;20035;-89
2022/07/24 05:02:34;;;;;;;1.85;0.63;;;19.10;99.90;;;;;;4941605;29;20067;-84
2022/07/24 05:05:00;;;;;;;0.40;0.40;;;19.30;99.90;;;;;;4942528;28;20059;-79
2022/07/24 05:07:26;;;;;;;0.70;0.67;;;19.70;99.90;;;;;;4940984;29;20034;-81
2022/07/24 05:09:51;;;;;;;0.30;0.30;;;20.30;99.90;;;;;;4942362;29;20567;-80
2022/07/24 05:12:17;;;;;;;0.20;0.20;;;20.70;99.90;;;;;;4946625;29;20027;-81
2022/07/24 05:14:43;;;;;;;0.50;0.50;;;21.10;99.90;;;;;;4946173;28;20055;-80
2022/07/24 05:17:08;;;;;;;0.23;0.23;;;21.40;98.70;;;;;;4946539;28;20081;-80
2022/07/24 05:19:34;;;;;;;0.40;0.40;;;21.40;97.60;;;;;;4945005;29;20455;-80
2022/07/24 05:22:00;;;;;;;0.90;0.70;;;21.80;96.30;;;;;;4945983;29;20027;-81
2022/07/24 05:24:25;;;;;;;0.20;0.20;;;22.10;94.50;;;;;;4946878;29;20516;-81
2022/07/24 05:26:51;;;;;;;0.13;0.13;;;22.30;93.40;;;;;;4945744;29;20039;-80
2022/07/24 05:29:17;;;;;;;0.38;0.30;;;22.30;93.00;;;;;;4946635;29;20431;-81
2022/07/24 05:31:43;;;;;;;0.20;0.20;;;22.50;92.80;;;;;;4946001;29;20043;-80
2022/07/24 05:34:09;;;;;;;0.10;0.10;;;23.00;91.50;;;;;;4945739;29;20589;-82
2022/07/24 05:36:35;;;;;;;7.25;2.05;;;23.10;90.80;;;;;;4946298;29;20850;-81
2022/07/24 05:39:01;;;;;;;0.35;0.35;;;23.10;89.90;;;;;;4927770;29;20050;-82
2022/07/24 05:41:27;;;;;;;0.33;0.33;;;23.10;89.90;;;;;;4944508;29;20127;-81
2022/07/24 05:43:53;;;;;;;0.40;0.40;;;23.30;87.80;;;;;;4924394;29;20776;-81
2022/07/24 05:46:19;;;;;;;1.08;0.30;;;23.70;86.80;;;;;;4945127;29;20046;-80
2022/07/24 05:48:45;;;;;;;0.22;0.22;;;23.80;85.60;;;;;;4946088;29;20043;-80
2022/07/24 05:51:11;;;;;;;1.58;0.77;;;24.10;83.50;;;;;;4946156;29;20066;-81
2022/07/24 05:53:37;;;;;;;2.92;0.45;;;24.30;82.50;;;;;;4944924;29;20039;-80
2022/07/24 05:56:03;;;;;;;0.32;0.30;;;24.30;81.70;;;;;;4910425;29;20422;-80
2022/07/24 05:58:29;;;;;;;0.30;0.30;;;24.80;80.40;;;;;;4944899;29;20035;-80
2022/07/24 06:00:55;;;;;;;0.13;0.03;;;24.90;79.90;;;;;;4944447;29;20411;-85
2022/07/24 06:03:20;;;;;;;0.57;0.43;;;25.30;77.90;;;;;;4927408;29;20027;-80
2022/07/24 06:05:46;;;;;;;0.80;0.23;;;25.70;76.00;;;;;;4944321;29;20422;-80
2022/07/24 06:08:11;;;;;;;1.70;0.63;;;25.70;75.20;;;;;;4944335;29;20035;-80
2022/07/24 06:10:37;;;;;;;0.33;0.33;;;25.90;73.70;;;;;;4927486;29;20298;-80
2022/07/24 06:13:03;;;;;;;0.17;0.17;;;26.00;73.50;;;;;;4946046;29;20330;-80
2022/07/24 06:15:29;;;;;;;0.20;0.20;;;26.00;73.20;;;;;;4946718;28;20031;-80
2022/07/24 06:17:55;;;;;;;0.80;0.45;;;26.10;72.50;;;;;;4943115;28;20051;-80
2022/07/24 06:20:21;;;;;;;1.17;0.43;;;26.50;71.90;;;;;;4944921;29;20127;-80
2022/07/24 06:22:46;;;;;;;2.70;1.00;;;26.60;70.90;;;;;;4943875;29;20513;-80
2022/07/24 06:25:14;;;;;;;0.50;0.30;;;26.90;70.10;;;;;;4943600;29;20035;-80
2022/07/24 06:27:41;;;;;;;0.30;0.20;;;26.80;68.90;;;;;;4945153;28;20047;-78
2022/07/24 06:30:11;;;;;;;0.52;0.45;;;27.00;69.10;;;;;;4944438;28;20051;-80
2022/07/24 06:32:37;;;;;;;0.98;0.85;;;28.00;66.80;;;;;;4945721;28;20031;-79
2022/07/24 06:35:03;;;;;;;0.22;0.22;;;27.80;66.00;;;;;;4944590;29;20035;-78
2022/07/24 06:37:29;;;;;;;0.15;0.15;;;28.20;65.10;;;;;;4944151;29;20039;-79
2022/07/24 06:39:54;;;;;;;0.10;0.10;;;27.90;65.40;;;;;;4944997;29;20047;-79
2022/07/24 06:42:20;;;;;;;0.63;0.40;;;28.40;64.90;;;;;;4943503;29;20035;-81
2022/07/24 06:44:46;;;;;;;1.20;0.35;;;28.80;62.90;;;;;;4943593;29;20669;-78
2022/07/24 06:47:14;;;;;;;0.10;0.10;;;29.30;62.80;;;;;;4943451;29;20557;-79
2022/07/24 06:49:40;;;;;;;0.30;0.30;;;29.20;62.50;;;;;;4945282;28;20058;-85
2022/07/24 06:52:06;;;;;;;1.05;0.40;;;29.40;61.50;;;;;;4944663;29;20063;-85
2022/07/24 06:54:31;;;;;;;0.95;0.17;;;29.60;61.30;;;;;;4944873;29;20066;-84
2022/07/24 06:56:57;;;;;;;2.92;0.63;;;29.20;61.80;;;;;;4944326;28;20039;-84
2022/07/24 06:59:23;;;;;;;;;;;29.20;61.30;;;;;;4926324;29;20042;-84
2022/07/24 07:01:48;;;;;;;0.47;0.47;;;28.90;61.40;;;;;;4942634;29;20401;-83
2022/07/24 07:04:14;;;;;;;0.00;0.00;;;29.30;61.60;;;;;;4944736;28;20035;-83
2022/07/24 07:06:40;;;;;;;;;;;30.10;59.60;;;;;;4944804;29;20774;-84
2022/07/24 07:09:05;;;;;;;;;;;30.10;60.00;;;;;;4944763;28;20378;-85
2022/07/24 07:11:31;;;;;;;;;;;30.50;58.40;;;;;;4945125;29;19918;-84
2022/07/24 07:13:56;;;;;;;;;;;29.80;58.80;;;;;;4946793;28;19929;-85
2022/07/24 07:16:22;;;;;;;0.10;0.10;;;31.50;56.90;;;;;;4944384;29;20485;-84
2022/07/24 07:18:47;;;;;;;;;;;31.40;56.50;;;;;;4944864;29;20069;-84
2022/07/24 07:21:13;;;;;;;5.28;0.98;;;31.70;56.20;;;;;;4942459;29;20705;-84
2022/07/24 07:23:39;;;;;;;;;;;31.80;56.60;;;;;;4941550;29;20825;-84
2022/07/24 07:26:05;;;;;;;0.65;0.30;;;31.60;55.60;;;;;;4935402;29;19917;-83
2022/07/24 07:28:32;;;;;;;;;;;31.40;55.90;;;;;;4928632;29;20039;-85
2022/07/24 07:30:58;;;;;;;0.30;0.10;;;32.00;55.30;;;;;;4930879;29;19922;-85
2022/07/24 07:33:26;;;;;;;0.00;0.00;;;32.30;54.50;;;;;;4949571;29;20074;-86
2022/07/24 07:35:52;;;;;;;0.20;0.20;;;32.10;55.00;;;;;;4949510;29;20652;-90
2022/07/24 07:38:18;;;;;;;0.47;0.30;;;32.30;54.30;;;;;;4949451;29;20062;-84
2022/07/24 07:40:44;;;;;;;0.30;0.30;;;32.30;54.30;;;;;;4945274;29;20039;-83
2022/07/24 07:43:10;;;;;;;0.20;0.15;;;32.90;53.60;;;;;;4945604;28;20074;-86
2022/07/24 07:45:35;;;;;;;1.48;0.95;;;32.60;54.00;;;;;;4946753;28;20558;-85
2022/07/24 07:48:02;;;;;;;0.28;0.28;;;33.40;53.60;;;;;;4926458;29;20074;-83
2022/07/24 07:50:27;;;;;;;0.45;0.22;;;33.60;52.30;;;;;;4946660;29;20042;-80
2022/07/24 07:52:53;;;;;;;0.20;0.20;;;33.90;51.60;;;;;;4945579;28;20545;-80
2022/07/24 07:55:19;;;;;;;0.93;0.22;;;33.40;52.30;;;;;;4930550;29;20038;-78
2022/07/24 07:57:44;;;;;;;0.10;0.10;;;33.40;52.60;;;;;;4947238;29;20840;-78
2022/07/24 08:00:11;;;;;;;0.28;0.28;;;33.70;51.50;;;;;;4947568;29;20118;-78
2022/07/24 08:02:37;;;;;;;0.00;0.00;;;33.70;51.60;;;;;;4945896;29;20042;-78
2022/07/24 08:05:03;;;;;;;0.25;0.17;;;34.80;51.30;;;;;;4931008;29;20034;-78
2022/07/24 08:07:29;;;;;;;0.17;0.17;;;35.90;49.90;;;;;;4946544;29;20110;-78
2022/07/24 08:09:54;;;;;;;0.65;0.30;;;35.70;48.60;;;;;;4947170;29;20040;-78
2022/07/24 08:12:20;;;;;;;0.30;0.30;;;35.20;49.70;;;;;;4947601;29;20031;-78
2022/07/24 08:14:46;;;;;;;0.10;0.10;;;35.60;48.90;;;;;;4949692;28;20483;-78
2022/07/24 08:17:12;;;;;;;0.35;0.35;;;36.00;49.00;;;;;;4944537;28;20059;-78
2022/07/24 08:19:38;;;;;;;0.08;0.08;;;36.20;47.90;;;;;;4945836;29;20039;-79
2022/07/24 08:22:04;;;;;;;0.30;0.30;;;36.00;48.70;;;;;;4944030;28;20043;-78
2022/07/24 08:24:32;;;;;;;1.05;0.40;;;37.00;48.20;;;;;;4947171;29;20031;-78
2022/07/24 08:26:58;;;;;;;0.10;0.10;;;37.20;47.90;;;;;;4945833;29;20046;-78
2022/07/24 08:29:24;;;;;;;0.20;0.20;;;37.50;46.90;;;;;;4940276;29;20106;-78
2022/07/24 08:31:50;;;;;;;0.20;0.20;;;37.70;47.00;;;;;;4947105;29;20042;-78
2022/07/24 08:34:16;;;;;;;0.10;0.10;;;38.20;46.00;;;;;;4946570;29;20400;-78
2022/07/24 08:36:45;;;;;;;0.22;0.20;;;38.30;46.40;;;;;;4928329;29;20085;-78
2022/07/24 08:39:15;;;;;;;0.13;0.13;;;38.60;46.00;;;;;;4946787;29;20043;-78
2022/07/24 08:41:41;;;;;;;1.23;0.20;;;39.20;44.90;;;;;;4929711;29;20031;-78
2022/07/24 08:44:08;;;;;;;0.55;0.55;;;38.10;45.20;;;;;;4946294;29;20549;-79
2022/07/24 08:46:37;;;;;;;0.22;0.22;;;38.00;45.30;;;;;;4945133;29;20027;-78
2022/07/24 08:49:23;;;;;;;0.10;0.10;;;39.10;45.10;;;;;;4945155;29;20126;-78
2022/07/24 08:51:50;;;;;;;0.10;0.10;;;39.80;43.30;;;;;;4944251;29;20054;-78
2022/07/24 08:54:16;;;;;;;1.58;0.30;;;39.40;42.60;;;;;;4935816;29;20876;-79
2022/07/24 08:56:42;;;;;;;0.20;0.20;;;39.80;42.80;;;;;;4945107;29;20076;-78
2022/07/24 08:59:21;;;;;;;0.08;0.08;;;39.40;43.00;;;;;;4927471;29;20031;-78
2022/07/24 09:01:48;;;;;;;0.17;0.10;;;41.20;42.20;;;;;;4941187;29;20035;-78
2022/07/24 09:04:36;;;;;;;0.17;0.17;;;41.20;41.50;;;;;;4946253;29;20050;-78
2022/07/24 09:07:11;;;;;;;0.32;0.20;;;40.70;40.70;;;;;;4945606;29;20041;-79
2022/07/24 09:09:41;;;;;;;0.30;0.30;;;41.50;40.10;;;;;;4945949;29;20078;-78
2022/07/24 09:12:13;;;;;;;0.10;0.10;;;41.30;40.70;;;;;;4946627;29;20032;-78
2022/07/24 09:14:41;;;;;;;0.15;0.15;;;41.00;41.00;;;;;;4933695;29;20059;-78
2022/07/24 09:17:10;;;;;;;1.48;0.20;;;41.10;40.70;;;;;;4946438;29;20631;-78
2022/07/24 09:19:51;;;;;;;0.40;0.20;;;41.50;39.90;;;;;;4945551;29;20090;-78
2022/07/24 09:22:37;;;;;;;0.25;0.25;;;41.70;41.00;;;;;;4946315;29;20031;-78
2022/07/24 09:25:06;;;;;;;0.63;0.38;;;41.80;40.70;;;;;;4925962;29;20030;-78
2022/07/24 09:27:33;;;;;;;0.30;0.25;;;41.30;39.20;;;;;;4941684;29;20129;-78
2022/07/24 09:29:59;;;;;;;0.30;0.30;;;40.80;39.70;;;;;;4946872;29;20039;-78
2022/07/24 09:32:26;;;;;;;0.85;0.55;;;42.00;39.70;;;;;;4948215;29;20031;-78
2022/07/24 09:34:53;;;;;;;0.35;0.32;;;42.90;40.30;;;;;;4943542;29;20669;-79
2022/07/24 09:37:20;;;;;;;0.03;0.03;;;42.20;38.70;;;;;;4942573;28;20042;-80
2022/07/24 09:39:47;;;;;;;0.00;0.00;;;40.70;40.20;;;;;;4943593;29;20511;-76
2022/07/24 09:42:13;;;;;;;0.10;0.10;;;40.10;41.10;;;;;;4943024;29;20035;-76
2022/07/24 09:44:39;;;;;;;0.30;0.20;;;41.00;39.00;;;;;;4926835;28;20411;-76
2022/07/24 09:47:10;;;;;;;0.17;0.17;;;41.20;39.10;;;;;;4946707;29;20403;-76
2022/07/24 09:49:37;;;;;;;2.75;0.65;;;41.50;39.00;;;;;;4928828;29;20038;-76
2022/07/24 09:52:05;;;;;;;0.50;0.40;;;41.80;38.60;;;;;;4946556;28;20034;-77
2022/07/24 09:54:32;;;;;;;0.20;0.20;;;42.40;39.20;;;;;;4946292;29;20097;-76
2022/07/24 09:57:23;;;;;;;0.00;0.00;;;42.20;38.40;;;;;;4946048;29;20074;-76
2022/07/24 10:00:01;;;;;;;0.40;0.40;;;41.50;38.80;;;;;;4942421;28;20031;-76
2022/07/24 10:02:29;;;;;;;0.43;0.30;;;41.90;39.00;;;;;;4943716;28;20042;-75
2022/07/24 10:04:56;;;;;;;0.00;0.00;;;40.80;38.10;;;;;;4946875;29;20053;-75
2022/07/24 10:07:24;;;;;;;0.43;0.30;;;41.70;39.20;;;;;;4946807;29;20035;-76
2022/07/24 10:09:54;;;;;;;0.55;0.30;;;41.30;37.80;;;;;;4943792;28;20043;-75
2022/07/24 10:12:22;;;;;;;0.32;0.32;;;41.20;39.10;;;;;;4945440;29;20118;-75
2022/07/24 10:14:51;;;;;;;0.10;0.10;;;41.50;39.60;;;;;;4946105;28;20590;-76
2022/07/24 10:17:17;;;;;;;0.35;0.35;;;41.90;39.10;;;;;;4937621;29;20069;-75
2022/07/24 10:19:48;;;;;;;0.38;0.25;;;41.80;38.60;;;;;;4946268;28;20110;-76
2022/07/24 10:22:20;;;;;;;0.35;0.35;;;41.40;39.90;;;;;;4946606;28;20054;-75
2022/07/24 10:24:56;;;;;;;0.08;0.08;;;41.30;39.80;;;;;;4945004;29;20027;-75
2022/07/24 10:27:23;;;;;;;0.00;0.00;;;42.30;39.40;;;;;;4955399;28;20452;-75
2022/07/24 10:29:55;;;;;;;0.70;0.65;;;41.80;38.80;;;;;;4939873;29;20039;-75
2022/07/24 10:32:22;;;;;;;0.25;0.25;;;40.20;39.60;;;;;;4941479;29;20046;-75
2022/07/24 10:34:53;;;;;;;1.02;0.40;;;40.50;40.10;;;;;;4944632;28;20046;-75
2022/07/24 10:37:23;;;;;;;0.10;0.10;;;39.70;39.50;;;;;;4942536;29;20093;-76
2022/07/24 10:40:12;;;;;;;0.10;0.10;;;38.40;40.30;;;;;;4944681;29;20039;-75
2022/07/24 10:43:08;;;;;;;0.20;0.20;;;37.00;41.60;;;;;;4943973;28;20131;-76
2022/07/24 10:45:35;;;;;;;0.20;0.13;;;35.50;43.30;;;;;;4943698;29;20027;-75
2022/07/24 10:48:20;;;;;;;0.50;0.13;;;35.30;44.10;;;;;;4943974;28;20074;-75
2022/07/24 10:51:01;;;;;;;0.10;0.10;;;34.60;44.50;;;;;;4959087;28;20928;-85
2022/07/24 10:53:29;;;;;;;0.55;0.25;;;34.80;45.20;;;;;;4942892;28;20036;-85
2022/07/24 10:56:24;;;;;;;0.52;0.30;;;34.40;44.50;;;;;;4944554;28;20019;-85
2022/07/24 10:58:59;;;;;;;12.47;1.47;;;34.30;45.20;;;;;;4942509;28;20027;-86
2022/07/24 11:01:44;;;;;;;0.70;0.65;;;34.40;45.50;;;;;;4946707;28;20030;-85
2022/07/24 11:04:48;;;;;;;0.10;0.10;;;34.00;45.20;;;;;;4944101;28;20458;-86
2022/07/24 11:07:14;;;;;;;0.65;0.60;;;34.50;45.00;;;;;;4940925;29;20071;-86
2022/07/24 11:10:00;;;;;;;0.40;0.30;;;34.40;46.70;;;;;;4945015;28;20203;-86
2022/07/24 11:12:28;;;;;;;0.35;0.25;;;34.20;46.50;;;;;;4943966;29;20043;-86
2022/07/24 11:15:54;;;;;;;0.80;0.65;;;34.40;47.00;;;;;;4944643;28;20031;-86
2022/07/24 11:17:47;;;;;;;0.00;0.00;;;34.40;47.40;;;;;;4942683;29;20083;-85
2022/07/24 11:20:17;;;;;;;0.13;0.13;;;34.40;46.20;;;;;;4943729;28;20493;-86
2022/07/24 11:22:50;;;;;;;0.10;0.10;;;34.00;47.40;;;;;;4944678;29;20042;-85
2022/07/24 11:25:17;;;;;;;4.13;0.30;;;34.10;46.50;;;;;;4944229;29;20031;-85
2022/07/24 11:27:50;;;;;;;0.22;0.22;;;33.80;45.40;;;;;;4943108;29;20066;-85
2022/07/24 11:30:17;;;;;;;0.28;0.10;;;34.00;47.40;;;;;;4939913;29;20047;-85
2022/07/24 11:32:44;;;;;;;0.20;0.20;;;34.00;46.40;;;;;;4926254;29;20025;-86
2022/07/24 11:35:10;;;;;;;0.30;0.30;;;33.90;45.80;;;;;;4943791;29;20110;-85
2022/07/24 11:37:37;;;;;;;0.65;0.50;;;33.90;47.60;;;;;;4926386;29;20411;-86
2022/07/24 11:40:06;;;;;;;0.05;0.00;;;33.50;45.80;;;;;;4942075;29;20602;-86
2022/07/24 11:42:32;;;;;;;0.10;0.10;;;33.50;43.40;;;;;;4942427;29;20114;-86
2022/07/24 11:44:57;;;;;;;0.30;0.22;;;33.40;44.60;;;;;;4939176;29;20098;-86
2022/07/24 11:47:26;;;;;;;0.10;0.10;;;33.30;47.10;;;;;;4941580;29;20063;-85
2022/07/24 11:50:00;;;;;;;0.10;0.10;;;33.40;46.20;;;;;;4942569;29;20071;-85
2022/07/24 11:52:31;;;;;;;0.08;0.05;;;33.10;45.10;;;;;;4940507;29;20050;-84
2022/07/24 11:55:00;;;;;;;0.10;0.10;;;33.10;45.40;;;;;;4943789;29;20042;-86
2022/07/24 11:57:31;;;;;;;0.10;0.10;;;33.20;47.40;;;;;;4943113;29;20047;-86
2022/07/24 11:59:57;;;;;;;0.50;0.25;;;33.00;43.20;;;;;;4942988;29;20522;-85
2022/07/24 12:02:23;;;;;;;0.00;0.00;;;33.00;41.70;;;;;;4942284;29;20043;-87
2022/07/24 12:04:50;;;;;;;0.00;0.00;;;33.00;41.80;;;;;;4943669;29;20043;-86
2022/07/24 12:07:22;;;;;;;0.10;0.10;;;33.00;42.00;;;;;;4944382;29;20028;-85
2022/07/24 12:09:51;;;;;;;0.10;0.10;;;32.90;42.40;;;;;;4925017;29;20031;-86
2022/07/24 12:12:30;;;;;;;0.13;0.13;;;32.70;39.40;;;;;;4941232;29;20053;-86
2022/07/24 12:15:11;;;;;;;0.10;0.10;;;32.80;38.80;;;;;;4944139;28;20039;-84
2022/07/24 12:17:59;;;;;;;0.03;0.00;;;32.80;38.80;;;;;;4942201;29;20055;-85
2022/07/24 12:20:27;;;;;;;0.55;0.38;;;32.90;40.40;;;;;;4944259;29;20030;-84
2022/07/24 12:22:54;;;;;;;0.20;0.17;;;32.90;40.70;;;;;;4944821;29;20133;-86
2022/07/24 12:25:20;;;;;;;1.65;0.20;;;32.90;40.50;;;;;;4945428;29;20028;-83
2022/07/24 12:27:47;;;;;;;0.10;0.10;;;32.80;41.30;;;;;;4919786;29;20129;-85
2022/07/24 12:30:31;;;;;;;0.20;0.20;;;33.00;41.00;;;;;;4945526;29;20039;-86
2022/07/24 12:33:18;;;;;;;0.20;0.20;;;33.00;42.90;;;;;;4927239;29;20035;-87
2022/07/24 12:36:10;;;;;;;0.10;0.10;;;32.90;40.20;;;;;;4945825;29;20138;-87
2022/07/24 12:38:42;;;;;;;0.57;0.45;;;32.50;39.20;;;;;;4946257;29;20035;-87
2022/07/24 12:41:13;;;;;;;0.15;0.15;;;32.40;40.30;;;;;;4919696;29;20027;-89
2022/07/24 12:43:55;;;;;;;0.10;0.10;;;32.40;40.50;;;;;;4944226;29;20697;-85
2022/07/24 12:46:32;;;;;;;0.00;0.00;;;32.10;40.50;;;;;;4947676;29;20035;-87
2022/07/24 12:49:01;;;;;;;0.10;0.10;;;32.20;41.00;;;;;;4929860;29;20074;-85
2022/07/24 12:51:44;;;;;;;0.20;0.20;;;32.60;40.40;;;;;;4944988;29;20061;-85